sensor_id;sensor_type;location;lat;lon;timestamp;pressure;altitude;pressure_sealevel;temperature;humidity
7524;BME280;3803;51.666;7.630;2024-02-23T00:00:03;98061.19;;;10.95;48.57
7524;BME280;3803;51.666;7.630;2024-02-23T00:00:25;98091.69;;;10.93;48.90
7524;BME280;3803;51.666;7.630;2024-02-23T00:00:46;98099.69;;;10.82;48.81
7524;BME280;3803;51.666;7.630;2024-02-23T00:01:07;98077.00;;;10.86;48.92
7524;BME280;3803;51.666;7.630;2024-02-23T00:01:28;98101.38;;;10.85;48.81
7524;BME280;3803;51.666;7.630;2024-02-23T00:01:48;98093.63;;;10.82;48.88
7524;BME280;3803;51.666;7.630;2024-02-23T00:02:09;98097.97;;;10.81;49.23
7524;BME280;3803;51.666;7.630;2024-02-23T00:02:30;98100.56;;;10.83;48.99
7524;BME280;3803;51.666;7.630;2024-02-23T00:02:50;98100.50;;;10.86;49.14
7524;BME280;3803;51.666;7.630;2024-02-23T00:03:11;98139.81;;;10.74;49.33
7524;BME280;3803;51.666;7.630;2024-02-23T00:03:33;98115.63;;;10.65;49.23
7524;BME280;3803;51.666;7.630;2024-02-23T00:03:55;98113.13;;;10.56;49.79
7524;BME280;3803;51.666;7.630;2024-02-23T00:04:15;98117.66;;;10.43;49.89
7524;BME280;3803;51.666;7.630;2024-02-23T00:04:36;98123.66;;;10.48;50.28
7524;BME280;3803;51.666;7.630;2024-02-23T00:04:57;98115.94;;;10.42;50.22
7524;BME280;3803;51.666;7.630;2024-02-23T00:05:18;98128.97;;;10.40;50.24
7524;BME280;3803;51.666;7.630;2024-02-23T00:05:39;98123.81;;;10.39;50.18
7524;BME280;3803;51.666;7.630;2024-02-23T00:06:00;98117.91;;;10.24;50.47
7524;BME280;3803;51.666;7.630;2024-02-23T00:06:21;98128.31;;;10.21;50.84
7524;BME280;3803;51.666;7.630;2024-02-23T00:06:44;98171.91;;;10.10;50.78
7524;BME280;3803;51.666;7.630;2024-02-23T00:07:05;98139.88;;;10.01;51.24
7524;BME280;3803;51.666;7.630;2024-02-23T00:07:25;98177.34;;;9.90;51.37
7524;BME280;3803;51.666;7.630;2024-02-23T00:07:46;98125.19;;;9.94;51.34
7524;BME280;3803;51.666;7.630;2024-02-23T00:08:07;98175.47;;;10.04;51.31
7524;BME280;3803;51.666;7.630;2024-02-23T00:08:29;98128.75;;;9.85;51.60
7524;BME280;3803;51.666;7.630;2024-02-23T00:08:50;98145.19;;;9.92;51.86
7524;BME280;3803;51.666;7.630;2024-02-23T00:09:10;98160.78;;;9.97;51.21
7524;BME280;3803;51.666;7.630;2024-02-23T00:09:31;98127.88;;;9.90;51.27
7524;BME280;3803;51.666;7.630;2024-02-23T00:09:51;98144.53;;;9.73;51.96
7524;BME280;3803;51.666;7.630;2024-02-23T00:10:12;98179.28;;;9.69;52.07
7524;BME280;3803;51.666;7.630;2024-02-23T00:10:33;98141.16;;;9.66;52.54
7524;BME280;3803;51.666;7.630;2024-02-23T00:10:53;98148.88;;;9.74;52.32
7524;BME280;3803;51.666;7.630;2024-02-23T00:11:14;98141.06;;;9.76;52.43
7524;BME280;3803;51.666;7.630;2024-02-23T00:11:35;98144.47;;;9.79;52.27
7524;BME280;3803;51.666;7.630;2024-02-23T00:12:00;98152.31;;;9.76;52.37
7524;BME280;3803;51.666;7.630;2024-02-23T00:12:20;98152.31;;;9.76;52.20
7524;BME280;3803;51.666;7.630;2024-02-23T00:12:41;98161.84;;;9.80;52.34
7524;BME280;3803;51.666;7.630;2024-02-23T00:13:04;98159.28;;;9.76;52.77
7524;BME280;3803;51.666;7.630;2024-02-23T00:13:24;98179.19;;;9.80;52.40
7524;BME280;3803;51.666;7.630;2024-02-23T00:13:45;98161.00;;;9.77;52.51
7524;BME280;3803;51.666;7.630;2024-02-23T00:14:05;98170.53;;;9.76;52.98
7524;BME280;3803;51.666;7.630;2024-02-23T00:14:26;98158.38;;;9.78;52.94
7524;BME280;3803;51.666;7.630;2024-02-23T00:14:47;98167.97;;;9.73;52.96
7524;BME280;3803;51.666;7.630;2024-02-23T00:15:08;98184.41;;;9.80;52.91
7524;BME280;3803;51.666;7.630;2024-02-23T00:15:28;98188.91;;;9.64;53.20
7524;BME280;3803;51.666;7.630;2024-02-23T00:15:49;98168.88;;;9.70;52.99
7524;BME280;3803;51.666;7.630;2024-02-23T00:16:10;98178.41;;;9.73;53.05
7524;BME280;3803;51.666;7.630;2024-02-23T00:16:37;98175.78;;;9.73;53.31
7524;BME280;3803;51.666;7.630;2024-02-23T00:16:58;98182.00;;;9.58;53.50
7524;BME280;3803;51.666;7.630;2024-02-23T00:17:19;98155.97;;;9.59;53.50
7524;BME280;3803;51.666;7.630;2024-02-23T00:17:40;98195.84;;;9.62;53.40
7524;BME280;3803;51.666;7.630;2024-02-23T00:18:00;98168.09;;;9.64;53.57
7524;BME280;3803;51.666;7.630;2024-02-23T00:18:23;98187.09;;;9.69;53.57
7524;BME280;3803;51.666;7.630;2024-02-23T00:18:44;98193.19;;;9.71;53.13
7524;BME280;3803;51.666;7.630;2024-02-23T00:19:07;98185.47;;;9.58;54.08
7524;BME280;3803;51.666;7.630;2024-02-23T00:19:30;98176.78;;;9.63;53.85
7524;BME280;3803;51.666;7.630;2024-02-23T00:19:51;98169.75;;;9.69;53.42
7524;BME280;3803;51.666;7.630;2024-02-23T00:20:13;98181.91;;;9.69;53.39
7524;BME280;3803;51.666;7.630;2024-02-23T00:20:35;98181.84;;;9.77;53.30
7524;BME280;3803;51.666;7.630;2024-02-23T00:20:56;98190.59;;;9.68;53.50
7524;BME280;3803;51.666;7.630;2024-02-23T00:21:17;98189.66;;;9.77;53.39
7524;BME280;3803;51.666;7.630;2024-02-23T00:21:38;98193.88;;;9.89;53.36
7524;BME280;3803;51.666;7.630;2024-02-23T00:21:59;98186.00;;;9.92;53.04
7524;BME280;3803;51.666;7.630;2024-02-23T00:22:20;98191.16;;;9.98;52.96
7524;BME280;3803;51.666;7.630;2024-02-23T00:22:40;98200.78;;;9.91;53.02
7524;BME280;3803;51.666;7.630;2024-02-23T00:23:02;98180.84;;;9.87;52.96
7524;BME280;3803;51.666;7.630;2024-02-23T00:23:23;98193.72;;;10.03;52.86
7524;BME280;3803;51.666;7.630;2024-02-23T00:23:43;98218.13;;;9.94;53.04
7524;BME280;3803;51.666;7.630;2024-02-23T00:24:04;98203.41;;;9.88;53.26
7524;BME280;3803;51.666;7.630;2024-02-23T00:24:26;98207.78;;;9.84;53.19
7524;BME280;3803;51.666;7.630;2024-02-23T00:24:46;98192.19;;;9.81;53.23
7524;BME280;3803;51.666;7.630;2024-02-23T00:25:07;98221.63;;;9.90;53.04
7524;BME280;3803;51.666;7.630;2024-02-23T00:25:28;98222.56;;;9.82;53.45
7524;BME280;3803;51.666;7.630;2024-02-23T00:25:49;98203.56;;;9.74;53.58
7524;BME280;3803;51.666;7.630;2024-02-23T00:26:09;98211.28;;;9.83;53.50
7524;BME280;3803;51.666;7.630;2024-02-23T00:26:30;98176.63;;;9.75;53.59
7524;BME280;3803;51.666;7.630;2024-02-23T00:26:50;98215.69;;;9.78;53.55
7524;BME280;3803;51.666;7.630;2024-02-23T00:27:11;98220.00;;;9.78;53.64
7524;BME280;3803;51.666;7.630;2024-02-23T00:27:32;98212.31;;;9.65;53.54
7524;BME280;3803;51.666;7.630;2024-02-23T00:27:53;98229.56;;;9.77;53.49
7524;BME280;3803;51.666;7.630;2024-02-23T00:28:13;98218.34;;;9.70;53.44
7524;BME280;3803;51.666;7.630;2024-02-23T00:28:34;98228.00;;;9.59;53.90
7524;BME280;3803;51.666;7.630;2024-02-23T00:28:55;98223.66;;;9.58;53.79
7524;BME280;3803;51.666;7.630;2024-02-23T00:29:16;98221.13;;;9.50;53.86
7524;BME280;3803;51.666;7.630;2024-02-23T00:29:37;98223.69;;;9.56;53.78
7524;BME280;3803;51.666;7.630;2024-02-23T00:29:57;98227.19;;;9.55;54.13
7524;BME280;3803;51.666;7.630;2024-02-23T00:30:18;98226.31;;;9.53;53.97
7524;BME280;3803;51.666;7.630;2024-02-23T00:30:39;98233.28;;;9.50;54.01
7524;BME280;3803;51.666;7.630;2024-02-23T00:31:00;98231.50;;;9.53;53.88
7524;BME280;3803;51.666;7.630;2024-02-23T00:31:21;98245.31;;;9.62;53.75
7524;BME280;3803;51.666;7.630;2024-02-23T00:31:42;98233.22;;;9.57;53.92
7524;BME280;3803;51.666;7.630;2024-02-23T00:32:03;98219.38;;;9.55;53.90
7524;BME280;3803;51.666;7.630;2024-02-23T00:32:24;98234.16;;;9.50;54.29
7524;BME280;3803;51.666;7.630;2024-02-23T00:32:45;98217.69;;;9.46;53.66
7524;BME280;3803;51.666;7.630;2024-02-23T00:33:05;98234.97;;;9.55;54.01
7524;BME280;3803;51.666;7.630;2024-02-23T00:33:26;98237.63;;;9.46;54.16
7524;BME280;3803;51.666;7.630;2024-02-23T00:33:47;98243.69;;;9.53;54.14
7524;BME280;3803;51.666;7.630;2024-02-23T00:34:07;98248.03;;;9.49;54.41
7524;BME280;3803;51.666;7.630;2024-02-23T00:34:31;98258.47;;;9.46;54.38
7524;BME280;3803;51.666;7.630;2024-02-23T00:34:52;98240.28;;;9.41;54.47
7524;BME280;3803;51.666;7.630;2024-02-23T00:35:13;98261.19;;;9.34;54.59
7524;BME280;3803;51.666;7.630;2024-02-23T00:35:33;98242.94;;;9.37;54.09
7524;BME280;3803;51.666;7.630;2024-02-23T00:35:54;98242.03;;;9.41;54.25
7524;BME280;3803;51.666;7.630;2024-02-23T00:36:15;98230.78;;;9.36;54.25
7524;BME280;3803;51.666;7.630;2024-02-23T00:36:39;98250.78;;;9.32;54.58
7524;BME280;3803;51.666;7.630;2024-02-23T00:37:00;98269.84;;;9.36;54.74
7524;BME280;3803;51.666;7.630;2024-02-23T00:37:22;98238.63;;;9.32;54.70
7524;BME280;3803;51.666;7.630;2024-02-23T00:37:42;98266.38;;;9.34;54.76
7524;BME280;3803;51.666;7.630;2024-02-23T00:38:03;98239.44;;;9.38;54.89
7524;BME280;3803;51.666;7.630;2024-02-23T00:38:24;98250.69;;;9.41;54.38
7524;BME280;3803;51.666;7.630;2024-02-23T00:38:45;98262.09;;;9.26;54.51
7524;BME280;3803;51.666;7.630;2024-02-23T00:39:06;98242.91;;;9.40;54.71
7524;BME280;3803;51.666;7.630;2024-02-23T00:39:30;98262.03;;;9.36;54.33
7524;BME280;3803;51.666;7.630;2024-02-23T00:39:52;98269.84;;;9.36;55.08
7524;BME280;3803;51.666;7.630;2024-02-23T00:40:13;98277.63;;;9.36;54.78
7524;BME280;3803;51.666;7.630;2024-02-23T00:40:34;98248.25;;;9.24;54.78
7524;BME280;3803;51.666;7.630;2024-02-23T00:40:54;98276.78;;;9.34;54.67
7524;BME280;3803;51.666;7.630;2024-02-23T00:41:15;98290.69;;;9.32;54.41
7524;BME280;3803;51.666;7.630;2024-02-23T00:41:36;98256.75;;;9.45;54.34
7524;BME280;3803;51.666;7.630;2024-02-23T00:41:56;98249.84;;;9.38;54.03
7524;BME280;3803;51.666;7.630;2024-02-23T00:42:17;98264.50;;;9.53;54.31
7524;BME280;3803;51.666;7.630;2024-02-23T00:42:38;98274.06;;;9.49;54.37
7524;BME280;3803;51.666;7.630;2024-02-23T00:42:58;98267.19;;;9.42;54.07
7524;BME280;3803;51.666;7.630;2024-02-23T00:43:20;98263.75;;;9.37;54.32
7524;BME280;3803;51.666;7.630;2024-02-23T00:43:41;98275.91;;;9.35;54.55
7524;BME280;3803;51.666;7.630;2024-02-23T00:44:02;98277.69;;;9.32;54.22
7524;BME280;3803;51.666;7.630;2024-02-23T00:44:23;98294.97;;;9.37;53.89
7524;BME280;3803;51.666;7.630;2024-02-23T00:44:44;98284.56;;;9.40;54.37
7524;BME280;3803;51.666;7.630;2024-02-23T00:45:05;98278.53;;;9.36;54.70
7524;BME280;3803;51.666;7.630;2024-02-23T00:45:26;98270.72;;;9.36;54.55
7524;BME280;3803;51.666;7.630;2024-02-23T00:45:47;98278.47;;;9.39;54.16
7524;BME280;3803;51.666;7.630;2024-02-23T00:46:08;98275.00;;;9.43;54.09
7524;BME280;3803;51.666;7.630;2024-02-23T00:46:29;98270.56;;;9.53;53.91
7524;BME280;3803;51.666;7.630;2024-02-23T00:46:49;98276.66;;;9.52;54.18
7524;BME280;3803;51.666;7.630;2024-02-23T00:47:10;98282.81;;;9.42;53.22
7524;BME280;3803;51.666;7.630;2024-02-23T00:47:30;98284.50;;;9.46;53.79
7524;BME280;3803;51.666;7.630;2024-02-23T00:47:51;98287.91;;;9.57;54.09
7524;BME280;3803;51.666;7.630;2024-02-23T00:48:12;98294.91;;;9.46;53.87
7524;BME280;3803;51.666;7.630;2024-02-23T00:48:34;98298.34;;;9.51;53.85
7524;BME280;3803;51.666;7.630;2024-02-23T00:48:54;98288.78;;;9.53;53.89
7524;BME280;3803;51.666;7.630;2024-02-23T00:49:15;98346.00;;;9.63;53.81
7524;BME280;3803;51.666;7.630;2024-02-23T00:49:36;98314.84;;;9.49;53.70
7524;BME280;3803;51.666;7.630;2024-02-23T00:49:57;98332.28;;;9.37;53.09
7524;BME280;3803;51.666;7.630;2024-02-23T00:50:18;98336.56;;;9.49;53.42
7524;BME280;3803;51.666;7.630;2024-02-23T00:50:39;98319.25;;;9.42;53.08
7524;BME280;3803;51.666;7.630;2024-02-23T00:51:01;98304.47;;;9.47;53.68
7524;BME280;3803;51.666;7.630;2024-02-23T00:51:23;98297.53;;;9.41;53.08
7524;BME280;3803;51.666;7.630;2024-02-23T00:51:43;98328.81;;;9.38;53.21
7524;BME280;3803;51.666;7.630;2024-02-23T00:52:04;98311.47;;;9.34;53.12
7524;BME280;3803;51.666;7.630;2024-02-23T00:52:25;98307.13;;;9.39;53.01
7524;BME280;3803;51.666;7.630;2024-02-23T00:52:45;98321.88;;;9.37;53.80
7524;BME280;3803;51.666;7.630;2024-02-23T00:53:06;98332.28;;;9.36;53.27
7524;BME280;3803;51.666;7.630;2024-02-23T00:53:27;98308.00;;;9.38;53.70
7524;BME280;3803;51.666;7.630;2024-02-23T00:53:48;98324.41;;;9.48;53.76
7524;BME280;3803;51.666;7.630;2024-02-23T00:54:09;98303.63;;;9.42;53.84
7524;BME280;3803;51.666;7.630;2024-02-23T00:54:29;98314.94;;;9.36;53.82
7524;BME280;3803;51.666;7.630;2024-02-23T00:54:50;98327.94;;;9.38;54.23
7524;BME280;3803;51.666;7.630;2024-02-23T00:55:11;98340.09;;;9.36;54.22
7524;BME280;3803;51.666;7.630;2024-02-23T00:55:31;98319.28;;;9.36;53.86
7524;BME280;3803;51.666;7.630;2024-02-23T00:55:52;98331.34;;;9.49;54.02
7524;BME280;3803;51.666;7.630;2024-02-23T00:56:12;98343.53;;;9.44;53.40
7524;BME280;3803;51.666;7.630;2024-02-23T00:56:34;98322.78;;;9.28;52.95
7524;BME280;3803;51.666;7.630;2024-02-23T00:56:55;98328.81;;;9.37;53.73
7524;BME280;3803;51.666;7.630;2024-02-23T00:57:15;98329.69;;;9.36;53.63
7524;BME280;3803;51.666;7.630;2024-02-23T00:57:38;98329.63;;;9.45;54.06
7524;BME280;3803;51.666;7.630;2024-02-23T00:57:59;98328.75;;;9.49;53.83
7524;BME280;3803;51.666;7.630;2024-02-23T00:58:19;98336.50;;;9.58;53.98
7524;BME280;3803;51.666;7.630;2024-02-23T00:58:40;98332.09;;;9.68;53.67
7524;BME280;3803;51.666;7.630;2024-02-23T00:59:01;98333.81;;;9.69;53.72
7524;BME280;3803;51.666;7.630;2024-02-23T00:59:21;98340.00;;;9.54;53.70
7524;BME280;3803;51.666;7.630;2024-02-23T00:59:42;98339.13;;;9.55;54.16
7524;BME280;3803;51.666;7.630;2024-02-23T01:00:04;98346.94;;;9.54;54.01
7524;BME280;3803;51.666;7.630;2024-02-23T01:00:29;98318.38;;;9.41;53.44
7524;BME280;3803;51.666;7.630;2024-02-23T01:00:50;98335.72;;;9.45;54.21
7524;BME280;3803;51.666;7.630;2024-02-23T01:01:11;98333.09;;;9.47;54.34
7524;BME280;3803;51.666;7.630;2024-02-23T01:01:31;98332.19;;;9.54;53.89
7524;BME280;3803;51.666;7.630;2024-02-23T01:01:52;98350.41;;;9.51;53.91
7524;BME280;3803;51.666;7.630;2024-02-23T01:02:13;98344.25;;;9.62;53.99
7524;BME280;3803;51.666;7.630;2024-02-23T01:02:34;98352.16;;;9.49;53.47
7524;BME280;3803;51.666;7.630;2024-02-23T01:02:55;98340.75;;;9.70;53.96
7524;BME280;3803;51.666;7.630;2024-02-23T01:03:15;98341.66;;;9.62;53.96
7524;BME280;3803;51.666;7.630;2024-02-23T01:03:36;98333.00;;;9.63;53.63
7524;BME280;3803;51.666;7.630;2024-02-23T01:03:56;98343.38;;;9.66;53.79
7524;BME280;3803;51.666;7.630;2024-02-23T01:04:17;98342.53;;;9.64;53.50
7524;BME280;3803;51.666;7.630;2024-02-23T01:04:37;98342.50;;;9.65;53.75
7524;BME280;3803;51.666;7.630;2024-02-23T01:04:58;98325.19;;;9.61;53.69
7524;BME280;3803;51.666;7.630;2024-02-23T01:05:19;98344.22;;;9.68;53.51
7524;BME280;3803;51.666;7.630;2024-02-23T01:05:40;98340.00;;;9.54;52.98
7524;BME280;3803;51.666;7.630;2024-02-23T01:06:03;98323.47;;;9.60;53.29
7524;BME280;3803;51.666;7.630;2024-02-23T01:06:23;98339.06;;;9.66;53.17
7524;BME280;3803;51.666;7.630;2024-02-23T01:06:45;98334.69;;;9.65;53.41
7524;BME280;3803;51.666;7.630;2024-02-23T01:07:06;98333.81;;;9.68;53.09
7524;BME280;3803;51.666;7.630;2024-02-23T01:07:27;98330.31;;;9.72;53.36
7524;BME280;3803;51.666;7.630;2024-02-23T01:07:48;98350.28;;;9.73;53.29
7524;BME280;3803;51.666;7.630;2024-02-23T01:08:09;98339.09;;;9.60;53.14
7524;BME280;3803;51.666;7.630;2024-02-23T01:08:30;98339.09;;;9.58;53.04
7524;BME280;3803;51.666;7.630;2024-02-23T01:08:51;98331.31;;;9.55;52.77
7524;BME280;3803;51.666;7.630;2024-02-23T01:09:12;98339.06;;;9.66;53.55
7524;BME280;3803;51.666;7.630;2024-02-23T01:09:33;98345.13;;;9.60;53.15
7524;BME280;3803;51.666;7.630;2024-02-23T01:09:54;98347.72;;;9.67;53.48
7524;BME280;3803;51.666;7.630;2024-02-23T01:10:14;98346.88;;;9.65;53.49
7524;BME280;3803;51.666;7.630;2024-02-23T01:10:35;98344.25;;;9.65;53.47
7524;BME280;3803;51.666;7.630;2024-02-23T01:10:56;98349.53;;;9.54;53.04
7524;BME280;3803;51.666;7.630;2024-02-23T01:11:17;98355.63;;;9.54;52.85
7524;BME280;3803;51.666;7.630;2024-02-23T01:11:38;98348.63;;;9.59;53.10
7524;BME280;3803;51.666;7.630;2024-02-23T01:11:58;98351.28;;;9.52;52.97
7524;BME280;3803;51.666;7.630;2024-02-23T01:12:19;98349.56;;;9.48;52.94
7524;BME280;3803;51.666;7.630;2024-02-23T01:12:39;98358.22;;;9.53;53.09
7524;BME280;3803;51.666;7.630;2024-02-23T01:13:00;98347.81;;;9.50;53.51
7524;BME280;3803;51.666;7.630;2024-02-23T01:13:21;98362.53;;;9.58;53.19
7524;BME280;3803;51.666;7.630;2024-02-23T01:13:42;98339.13;;;9.52;53.27
7524;BME280;3803;51.666;7.630;2024-02-23T01:14:02;98354.69;;;9.63;52.93
7524;BME280;3803;51.666;7.630;2024-02-23T01:14:23;98350.41;;;9.53;53.18
7524;BME280;3803;51.666;7.630;2024-02-23T01:14:44;98366.88;;;9.55;53.04
7524;BME280;3803;51.666;7.630;2024-02-23T01:15:05;98350.41;;;9.54;52.94
7524;BME280;3803;51.666;7.630;2024-02-23T01:15:25;98359.06;;;9.55;53.21
7524;BME280;3803;51.666;7.630;2024-02-23T01:15:46;98330.44;;;9.55;52.63
7524;BME280;3803;51.666;7.630;2024-02-23T01:16:07;98360.78;;;9.59;52.77
7524;BME280;3803;51.666;7.630;2024-02-23T01:16:28;98358.13;;;9.68;52.82
7524;BME280;3803;51.666;7.630;2024-02-23T01:16:49;98346.81;;;9.68;53.10
7524;BME280;3803;51.666;7.630;2024-02-23T01:17:10;98348.63;;;9.63;52.71
7524;BME280;3803;51.666;7.630;2024-02-23T01:17:30;98358.13;;;9.67;52.95
7524;BME280;3803;51.666;7.630;2024-02-23T01:17:51;98346.91;;;9.58;52.69
7524;BME280;3803;51.666;7.630;2024-02-23T01:18:12;98355.47;;;9.70;52.94
7524;BME280;3803;51.666;7.630;2024-02-23T01:18:32;98362.41;;;9.76;52.70
7524;BME280;3803;51.666;7.630;2024-02-23T01:18:53;98368.47;;;9.76;52.67
7524;BME280;3803;51.666;7.630;2024-02-23T01:19:13;98354.63;;;9.68;52.68
7524;BME280;3803;51.666;7.630;2024-02-23T01:19:36;98367.66;;;9.68;52.81
7524;BME280;3803;51.666;7.630;2024-02-23T01:19:56;98369.34;;;9.73;52.61
7524;BME280;3803;51.666;7.630;2024-02-23T01:20:17;98365.91;;;9.73;52.33
7524;BME280;3803;51.666;7.630;2024-02-23T01:20:37;98373.72;;;9.73;52.11
7524;BME280;3803;51.666;7.630;2024-02-23T01:20:58;98352.09;;;9.58;52.28
7524;BME280;3803;51.666;7.630;2024-02-23T01:21:19;98359.00;;;9.66;51.96
7524;BME280;3803;51.666;7.630;2024-02-23T01:21:39;98355.47;;;9.70;52.51
7524;BME280;3803;51.666;7.630;2024-02-23T01:22:00;98367.63;;;9.74;52.32
7524;BME280;3803;51.666;7.630;2024-02-23T01:22:21;98355.56;;;9.64;52.37
7524;BME280;3803;51.666;7.630;2024-02-23T01:22:41;98372.00;;;9.69;52.17
7524;BME280;3803;51.666;7.630;2024-02-23T01:23:02;98360.72;;;9.68;52.27
7524;BME280;3803;51.666;7.630;2024-02-23T01:23:22;98372.00;;;9.69;51.88
7524;BME280;3803;51.666;7.630;2024-02-23T01:23:43;98369.31;;;9.81;52.00
7524;BME280;3803;51.666;7.630;2024-02-23T01:24:05;98372.88;;;9.68;51.72
7524;BME280;3803;51.666;7.630;2024-02-23T01:24:26;98366.75;;;9.75;51.86
7524;BME280;3803;51.666;7.630;2024-02-23T01:24:50;98353.69;;;9.80;51.75
7524;BME280;3803;51.666;7.630;2024-02-23T01:25:11;98358.88;;;9.81;51.77
7524;BME280;3803;51.666;7.630;2024-02-23T01:25:32;98364.97;;;9.79;51.85
7524;BME280;3803;51.666;7.630;2024-02-23T01:25:55;98356.38;;;9.70;51.77
7524;BME280;3803;51.666;7.630;2024-02-23T01:26:15;98358.09;;;9.71;51.59
7524;BME280;3803;51.666;7.630;2024-02-23T01:26:36;98359.78;;;9.77;51.88
7524;BME280;3803;51.666;7.630;2024-02-23T01:26:57;98371.84;;;9.92;51.71
7524;BME280;3803;51.666;7.630;2024-02-23T01:27:18;98357.13;;;9.83;51.55
7524;BME280;3803;51.666;7.630;2024-02-23T01:27:38;98357.16;;;9.80;52.08
7524;BME280;3803;51.666;7.630;2024-02-23T01:28:00;98371.03;;;9.82;51.66
7524;BME280;3803;51.666;7.630;2024-02-23T01:28:21;98363.25;;;9.78;51.82
7524;BME280;3803;51.666;7.630;2024-02-23T01:28:42;98346.81;;;9.71;51.48
7524;BME280;3803;51.666;7.630;2024-02-23T01:29:03;98369.38;;;9.70;51.54
7524;BME280;3803;51.666;7.630;2024-02-23T01:29:25;98352.06;;;9.62;51.45
7524;BME280;3803;51.666;7.630;2024-02-23T01:29:46;98388.56;;;9.60;51.69
7524;BME280;3803;51.666;7.630;2024-02-23T01:30:07;98366.06;;;9.48;51.64
7524;BME280;3803;51.666;7.630;2024-02-23T01:30:28;98361.81;;;9.35;51.63
7524;BME280;3803;51.666;7.630;2024-02-23T01:30:49;98365.31;;;9.30;51.29
7524;BME280;3803;51.666;7.630;2024-02-23T01:31:09;98341.84;;;9.34;51.63
7524;BME280;3803;51.666;7.630;2024-02-23T01:31:34;98361.81;;;9.33;51.76
7524;BME280;3803;51.666;7.630;2024-02-23T01:31:54;98360.88;;;9.48;51.78
7524;BME280;3803;51.666;7.630;2024-02-23T01:32:15;98351.31;;;9.45;51.56
7524;BME280;3803;51.666;7.630;2024-02-23T01:32:36;98381.66;;;9.50;51.51
7524;BME280;3803;51.666;7.630;2024-02-23T01:32:58;98360.91;;;9.42;51.50
7524;BME280;3803;51.666;7.630;2024-02-23T01:33:19;98377.38;;;9.42;51.43
7524;BME280;3803;51.666;7.630;2024-02-23T01:33:40;98395.59;;;9.38;51.18
7524;BME280;3803;51.666;7.630;2024-02-23T01:34:01;98353.91;;;9.49;51.33
7524;BME280;3803;51.666;7.630;2024-02-23T01:34:21;98373.81;;;9.56;51.21
7524;BME280;3803;51.666;7.630;2024-02-23T01:34:42;98366.00;;;9.57;51.38
7524;BME280;3803;51.666;7.630;2024-02-23T01:35:06;98369.53;;;9.52;50.98
7524;BME280;3803;51.666;7.630;2024-02-23T01:35:28;98369.53;;;9.52;50.93
7524;BME280;3803;51.666;7.630;2024-02-23T01:35:50;98360.75;;;9.64;51.31
7524;BME280;3803;51.666;7.630;2024-02-23T01:36:11;98367.69;;;9.65;51.09
7524;BME280;3803;51.666;7.630;2024-02-23T01:36:32;98361.59;;;9.64;51.07
7524;BME280;3803;51.666;7.630;2024-02-23T01:36:52;98371.19;;;9.64;50.92
7524;BME280;3803;51.666;7.630;2024-02-23T01:37:13;98351.25;;;9.55;51.00
7524;BME280;3803;51.666;7.630;2024-02-23T01:37:34;98356.47;;;9.53;50.94
7524;BME280;3803;51.666;7.630;2024-02-23T01:37:55;98361.63;;;9.63;51.03
7524;BME280;3803;51.666;7.630;2024-02-23T01:38:15;98369.47;;;9.56;50.52
7524;BME280;3803;51.666;7.630;2024-02-23T01:38:40;98365.97;;;9.60;50.66
7524;BME280;3803;51.666;7.630;2024-02-23T01:39:03;98371.19;;;9.60;50.78
7524;BME280;3803;51.666;7.630;2024-02-23T01:39:24;98364.28;;;9.53;50.58
7524;BME280;3803;51.666;7.630;2024-02-23T01:39:45;98379.00;;;9.60;50.43
7524;BME280;3803;51.666;7.630;2024-02-23T01:40:06;98376.38;;;9.60;50.53
7524;BME280;3803;51.666;7.630;2024-02-23T01:40:26;98347.75;;;9.60;50.51
7524;BME280;3803;51.666;7.630;2024-02-23T01:40:47;98376.41;;;9.57;50.46
7524;BME280;3803;51.666;7.630;2024-02-23T01:41:08;98379.09;;;9.46;50.47
7524;BME280;3803;51.666;7.630;2024-02-23T01:41:28;98377.25;;;9.59;50.79
7524;BME280;3803;51.666;7.630;2024-02-23T01:41:49;98371.13;;;9.65;50.88
7524;BME280;3803;51.666;7.630;2024-02-23T01:42:10;98381.59;;;9.64;50.31
7524;BME280;3803;51.666;7.630;2024-02-23T01:42:30;98372.91;;;9.62;50.27
7524;BME280;3803;51.666;7.630;2024-02-23T01:43:02;98384.97;;;9.75;50.52
7524;BME280;3803;51.666;7.630;2024-02-23T01:43:23;98388.47;;;9.72;50.36
7524;BME280;3803;51.666;7.630;2024-02-23T01:43:43;98385.00;;;9.72;50.30
7524;BME280;3803;51.666;7.630;2024-02-23T01:44:04;98388.47;;;9.72;50.28
7524;BME280;3803;51.666;7.630;2024-02-23T01:44:25;98385.00;;;9.69;50.33
7524;BME280;3803;51.666;7.630;2024-02-23T01:44:46;98380.66;;;9.72;50.31
7524;BME280;3803;51.666;7.630;2024-02-23T01:45:07;98391.09;;;9.71;50.26
7524;BME280;3803;51.666;7.630;2024-02-23T01:45:28;98383.31;;;9.66;50.18
7524;BME280;3803;51.666;7.630;2024-02-23T01:45:49;98386.72;;;9.73;50.01
7524;BME280;3803;51.666;7.630;2024-02-23T01:46:09;98396.22;;;9.77;50.14
7524;BME280;3803;51.666;7.630;2024-02-23T01:46:30;98407.56;;;9.73;49.89
7524;BME280;3803;51.666;7.630;2024-02-23T01:46:51;98394.53;;;9.71;49.74
7524;BME280;3803;51.666;7.630;2024-02-23T01:47:13;98409.28;;;9.72;49.42
7524;BME280;3803;51.666;7.630;2024-02-23T01:47:33;98393.63;;;9.80;49.52
7524;BME280;3803;51.666;7.630;2024-02-23T01:47:54;98403.16;;;9.83;49.16
7524;BME280;3803;51.666;7.630;2024-02-23T01:48:15;98415.34;;;9.79;48.94
7524;BME280;3803;51.666;7.630;2024-02-23T01:48:36;98421.44;;;9.77;48.74
7524;BME280;3803;51.666;7.630;2024-02-23T01:48:57;98411.06;;;9.69;48.59
7524;BME280;3803;51.666;7.630;2024-02-23T01:49:18;98410.94;;;9.87;48.79
7524;BME280;3803;51.666;7.630;2024-02-23T01:49:40;98412.66;;;9.89;48.60
7524;BME280;3803;51.666;7.630;2024-02-23T01:50:01;98394.41;;;9.92;48.83
7524;BME280;3803;51.666;7.630;2024-02-23T01:50:24;98395.25;;;9.97;48.62
7524;BME280;3803;51.666;7.630;2024-02-23T01:50:45;98405.59;;;10.05;48.86
7524;BME280;3803;51.666;7.630;2024-02-23T01:51:07;98397.00;;;9.95;48.50
7524;BME280;3803;51.666;7.630;2024-02-23T01:51:27;98412.56;;;10.04;48.90
7524;BME280;3803;51.666;7.630;2024-02-23T01:51:48;98405.63;;;10.00;48.44
7524;BME280;3803;51.666;7.630;2024-02-23T01:52:09;98406.38;;;10.13;48.83
7524;BME280;3803;51.666;7.630;2024-02-23T01:52:30;98402.00;;;10.17;48.96
7524;BME280;3803;51.666;7.630;2024-02-23T01:52:51;98414.19;;;10.14;48.85
7524;BME280;3803;51.666;7.630;2024-02-23T01:53:13;98411.63;;;10.08;48.31
7524;BME280;3803;51.666;7.630;2024-02-23T01:53:33;98404.75;;;10.01;48.54
7524;BME280;3803;51.666;7.630;2024-02-23T01:53:54;98410.75;;;10.09;48.66
7524;BME280;3803;51.666;7.630;2024-02-23T01:54:16;98398.69;;;10.02;48.67
7524;BME280;3803;51.666;7.630;2024-02-23T01:54:37;98405.69;;;9.94;48.54
7524;BME280;3803;51.666;7.630;2024-02-23T01:54:58;98412.53;;;10.07;48.48
7524;BME280;3803;51.666;7.630;2024-02-23T01:55:20;98404.69;;;10.09;48.63
7524;BME280;3803;51.666;7.630;2024-02-23T01:55:41;98412.50;;;10.10;48.31
7524;BME280;3803;51.666;7.630;2024-02-23T01:56:03;98428.13;;;10.12;48.30